Time;durP1;ratioP1;P1;durP2;ratioP2;P2;SDS_P1;SDS_P2;PMS_P1;PMS_P2;Temp;Humidity;BMP_temperature;BMP_pressure;BME280_temperature;BME280_humidity;BME280_pressure;Samples;Min_cycle;Max_cycle;Signal;HPM_P1;HPM_P2
2024/02/18 00:00:13;;;;;;;14.10;7.27;;;28.70;70.40;;;;;;5051132;28;20227;-75
2024/02/18 00:02:41;;;;;;;14.50;8.10;;;28.70;69.30;;;;;;5047383;28;20180;-74
2024/02/18 00:05:12;;;;;;;10.90;7.00;;;28.80;70.30;;;;;;5048852;28;20262;-75
2024/02/18 00:07:39;;;;;;;11.07;7.37;;;29.00;69.30;;;;;;5046366;28;20635;-72
2024/02/18 00:10:07;;;;;;;17.70;6.97;;;29.30;69.00;;;;;;5050090;28;20199;-73
2024/02/18 00:12:34;;;;;;;15.13;7.60;;;29.40;67.30;;;;;;5049289;28;20193;-75
2024/02/18 00:15:02;;;;;;;13.33;7.20;;;29.40;66.80;;;;;;5048148;28;20183;-75
2024/02/18 00:17:29;;;;;;;11.17;6.90;;;29.30;67.20;;;;;;5051794;28;20187;-77
2024/02/18 00:19:56;;;;;;;10.83;7.00;;;29.00;68.10;;;;;;5050950;28;20222;-74
2024/02/18 00:22:23;;;;;;;12.60;7.40;;;29.30;67.70;;;;;;5050133;28;20678;-76
2024/02/18 00:24:54;;;;;;;12.30;6.97;;;29.50;66.60;;;;;;5051873;28;20180;-73
2024/02/18 00:27:21;;;;;;;12.77;6.77;;;29.80;65.90;;;;;;5052188;28;20206;-75
2024/02/18 00:29:48;;;;;;;11.53;7.60;;;30.00;66.30;;;;;;5050501;28;20179;-74
2024/02/18 00:32:16;;;;;;;13.67;7.83;;;30.30;65.50;;;;;;5052108;28;20245;-71
2024/02/18 00:34:43;;;;;;;13.60;6.90;;;30.60;64.60;;;;;;5051840;28;20180;-70
2024/02/18 00:37:10;;;;;;;16.25;7.47;;;30.80;64.20;;;;;;5051743;28;20188;-71
2024/02/18 00:39:38;;;;;;;17.37;7.37;;;30.70;62.90;;;;;;5051786;28;20234;-70
2024/02/18 00:42:08;;;;;;;9.65;6.82;;;30.40;64.80;;;;;;5051603;28;20225;-69
2024/02/18 00:44:35;;;;;;;14.30;8.40;;;30.70;64.30;;;;;;5051870;28;20198;-72
2024/02/18 00:47:03;;;;;;;12.02;7.50;;;30.80;64.10;;;;;;5051970;28;20214;-71
2024/02/18 00:49:32;;;;;;;11.20;7.37;;;30.20;64.40;;;;;;5051864;28;20279;-70
2024/02/18 00:52:00;;;;;;;11.37;7.47;;;30.10;64.70;;;;;;5051842;28;20187;-72
2024/02/18 00:54:27;;;;;;;11.03;7.17;;;30.50;64.50;;;;;;5051799;28;20227;-71
2024/02/18 00:56:54;;;;;;;12.25;8.23;;;30.60;63.90;;;;;;5050884;28;20219;-71
2024/02/18 00:59:22;;;;;;;11.05;6.30;;;31.00;62.90;;;;;;5048604;28;20268;-70
2024/02/18 01:01:49;;;;;;;11.30;6.50;;;31.20;62.00;;;;;;5055456;28;20639;-71
2024/02/18 01:04:17;;;;;;;14.93;7.15;;;31.30;61.60;;;;;;5055486;28;20250;-71
2024/02/18 01:06:44;;;;;;;10.33;5.90;;;30.80;63.10;;;;;;5055717;28;20187;-70
2024/02/18 01:09:11;;;;;;;13.27;6.20;;;30.90;61.40;;;;;;5052424;28;20550;-73
2024/02/18 01:11:39;;;;;;;10.27;5.70;;;30.80;60.70;;;;;;5040104;28;20706;-71
2024/02/18 01:14:06;;;;;;;12.47;6.10;;;31.00;60.90;;;;;;5055394;28;20175;-70
2024/02/18 01:16:33;;;;;;;14.75;7.10;;;31.30;60.60;;;;;;5055284;28;20184;-72
2024/02/18 01:19:01;;;;;;;12.02;6.28;;;31.40;60.90;;;;;;5055232;28;20211;-71
2024/02/18 01:21:28;;;;;;;12.53;6.60;;;31.30;61.40;;;;;;5054662;28;20244;-73
2024/02/18 01:23:55;;;;;;;11.20;6.82;;;31.70;60.40;;;;;;5053932;28;20694;-70
2024/02/18 01:26:23;;;;;;;13.23;7.32;;;31.40;60.90;;;;;;5055477;28;20188;-73
2024/02/18 01:28:56;;;;;;;12.80;6.32;;;31.30;61.10;;;;;;5054784;28;20184;-70
2024/02/18 01:31:24;;;;;;;11.55;6.72;;;31.50;60.90;;;;;;5054804;28;20366;-75
2024/02/18 01:33:51;;;;;;;16.00;6.45;;;31.40;62.50;;;;;;5053960;28;20187;-73
2024/02/18 01:36:18;;;;;;;14.75;6.60;;;31.80;63.50;;;;;;5054561;28;20230;-73
2024/02/18 01:38:46;;;;;;;14.93;6.80;;;31.70;63.50;;;;;;5054143;28;20203;-72
2024/02/18 01:41:13;;;;;;;16.27;6.25;;;31.80;62.10;;;;;;5054966;28;20206;-73
2024/02/18 01:43:40;;;;;;;13.05;6.25;;;31.50;63.60;;;;;;5052044;28;20221;-71
2024/02/18 01:46:08;;;;;;;15.63;6.20;;;31.70;63.90;;;;;;5054428;28;20184;-74
2024/02/18 01:48:35;;;;;;;12.20;6.15;;;31.80;64.00;;;;;;5054331;28;20188;-70
2024/02/18 01:51:04;;;;;;;11.63;5.70;;;32.30;62.00;;;;;;5053943;28;20176;-75
2024/02/18 01:53:32;;;;;;;12.93;6.22;;;32.50;62.60;;;;;;5053669;28;20183;-75
2024/02/18 01:55:59;;;;;;;20.73;6.53;;;32.80;61.50;;;;;;5053760;28;20270;-73
2024/02/18 01:58:27;;;;;;;9.20;5.78;;;32.50;62.00;;;;;;5053629;28;20616;-70
2024/02/18 02:00:55;;;;;;;16.02;6.82;;;32.70;61.20;;;;;;5053258;28;20229;-73
2024/02/18 02:03:22;;;;;;;14.88;6.45;;;33.00;60.50;;;;;;5054660;28;20267;-71
2024/02/18 02:05:51;;;;;;;12.75;6.45;;;33.10;61.00;;;;;;5052967;28;20260;-73
2024/02/18 02:08:21;;;;;;;11.40;5.85;;;32.90;60.70;;;;;;5054538;28;20183;-72
2024/02/18 02:10:51;;;;;;;13.35;5.60;;;32.90;60.00;;;;;;5052908;28;20184;-73
2024/02/18 02:13:18;;;;;;;11.50;5.30;;;32.80;61.10;;;;;;5046441;28;20283;-74
2024/02/18 02:15:45;;;;;;;12.10;5.45;;;32.80;60.30;;;;;;5039188;28;20266;-72
2024/02/18 02:18:13;;;;;;;12.57;5.40;;;32.80;60.80;;;;;;5053000;28;20558;-74
2024/02/18 02:20:43;;;;;;;10.18;5.40;;;32.90;60.40;;;;;;5054045;28;20202;-72
2024/02/18 02:23:11;;;;;;;12.63;6.15;;;32.90;59.90;;;;;;5053741;28;20173;-70
2024/02/18 02:25:39;;;;;;;16.67;6.15;;;32.80;60.20;;;;;;5050905;28;20544;-72
2024/02/18 02:28:23;;;;;;;12.40;5.95;;;32.10;62.20;;;;;;5053810;28;20183;-75
2024/02/18 02:30:51;;;;;;;13.25;6.13;;;31.90;63.40;;;;;;5053554;28;20187;-72
2024/02/18 02:33:18;;;;;;;13.30;5.97;;;31.90;62.20;;;;;;5040077;28;20180;-72
2024/02/18 02:35:47;;;;;;;12.98;6.15;;;32.20;63.30;;;;;;5050228;28;20714;-71
2024/02/18 02:38:14;;;;;;;10.45;5.88;;;32.30;61.80;;;;;;5053775;28;20556;-72
2024/02/18 02:40:42;;;;;;;13.43;6.05;;;32.60;61.10;;;;;;5053770;28;20187;-71
2024/02/18 02:43:10;;;;;;;10.18;5.03;;;32.60;61.10;;;;;;5053344;28;20184;-70
2024/02/18 02:45:38;;;;;;;11.32;5.28;;;32.30;62.20;;;;;;5053126;28;20552;-70
2024/02/18 02:48:05;;;;;;;12.40;5.32;;;32.80;60.70;;;;;;5052274;28;20180;-71
2024/02/18 02:50:32;;;;;;;13.02;5.47;;;32.90;60.90;;;;;;5053520;28;20192;-71
2024/02/18 02:53:00;;;;;;;11.00;5.53;;;32.60;60.40;;;;;;5051758;28;20241;-70
2024/02/18 02:55:27;;;;;;;10.98;5.68;;;32.40;62.20;;;;;;5053405;28;20217;-72
2024/02/18 02:57:54;;;;;;;10.48;4.72;;;32.80;60.60;;;;;;5052898;28;20217;-72
2024/02/18 03:00:22;;;;;;;10.65;5.80;;;32.70;60.60;;;;;;5053401;28;20292;-71
2024/02/18 03:02:49;;;;;;;8.82;4.63;;;32.60;60.80;;;;;;5053273;28;20183;-70
2024/02/18 03:05:17;;;;;;;12.75;5.05;;;32.80;60.70;;;;;;5053737;28;20707;-71
2024/02/18 03:07:44;;;;;;;12.43;5.07;;;33.20;60.00;;;;;;5053252;28;20275;-71
2024/02/18 03:10:11;;;;;;;11.20;4.30;;;33.20;59.10;;;;;;5065013;28;20184;-70
2024/02/18 03:12:39;;;;;;;11.68;4.13;;;33.20;58.90;;;;;;5050067;28;20371;-71
2024/02/18 03:15:06;;;;;;;11.07;4.30;;;33.20;59.20;;;;;;5048482;28;20179;-70
2024/02/18 03:17:36;;;;;;;10.55;4.53;;;33.30;58.70;;;;;;5052362;28;20595;-71
2024/02/18 03:20:12;;;;;;;12.40;4.88;;;33.30;58.60;;;;;;5052764;28;20674;-72
2024/02/18 03:22:40;;;;;;;11.15;4.72;;;32.80;60.10;;;;;;5052371;28;20180;-71
2024/02/18 03:25:07;;;;;;;12.40;4.85;;;33.00;58.50;;;;;;5053128;28;20231;-70
2024/02/18 03:27:35;;;;;;;10.88;4.43;;;32.90;60.00;;;;;;5052549;28;20171;-74
2024/02/18 03:30:03;;;;;;;10.32;5.00;;;33.20;58.50;;;;;;5052731;28;20266;-73
2024/02/18 03:32:32;;;;;;;12.02;5.47;;;32.40;60.30;;;;;;5052745;28;20176;-71
2024/02/18 03:34:59;;;;;;;10.50;5.00;;;31.70;62.70;;;;;;5052505;28;20281;-72
2024/02/18 03:37:30;;;;;;;12.60;5.43;;;31.20;63.40;;;;;;5052780;28;20176;-73
2024/02/18 03:39:57;;;;;;;10.80;5.20;;;30.70;65.30;;;;;;5052498;28;20690;-72
2024/02/18 03:42:24;;;;;;;16.83;5.28;;;30.50;66.40;;;;;;5052938;28;20176;-72
2024/02/18 03:44:52;;;;;;;12.50;5.70;;;29.90;66.80;;;;;;5043878;28;20572;-72
2024/02/18 03:47:23;;;;;;;12.07;5.10;;;29.60;68.40;;;;;;5049420;28;20172;-74
2024/02/18 03:49:51;;;;;;;12.33;5.40;;;29.30;68.40;;;;;;5051518;28;20184;-72
2024/02/18 03:52:18;;;;;;;13.37;5.13;;;29.30;68.50;;;;;;5051831;28;20187;-72
2024/02/18 03:54:45;;;;;;;11.53;4.23;;;29.30;68.20;;;;;;5049677;28;20184;-74
2024/02/18 03:57:12;;;;;;;12.77;4.40;;;29.00;69.30;;;;;;5052662;28;20200;-73
2024/02/18 03:59:41;;;;;;;9.63;4.03;;;29.10;69.90;;;;;;5052384;28;20682;-72
2024/02/18 04:02:09;;;;;;;8.03;3.40;;;28.80;70.10;;;;;;5052353;28;20658;-73
2024/02/18 04:04:36;;;;;;;12.80;4.00;;;28.80;70.50;;;;;;5052535;28;20184;-72
2024/02/18 04:07:03;;;;;;;11.43;4.30;;;28.70;71.30;;;;;;5041911;28;20168;-72
2024/02/18 04:09:31;;;;;;;13.73;4.53;;;28.50;72.70;;;;;;5052404;28;20186;-72
2024/02/18 04:11:58;;;;;;;10.23;4.00;;;28.60;72.70;;;;;;5052348;28;20254;-73
2024/02/18 04:14:25;;;;;;;18.40;4.27;;;28.40;73.00;;;;;;5052586;28;20188;-73
2024/02/18 04:16:53;;;;;;;11.10;3.57;;;28.10;73.60;;;;;;5052697;28;20180;-72
2024/02/18 04:19:21;;;;;;;13.00;4.17;;;28.00;74.60;;;;;;5052660;28;20215;-73
2024/02/18 04:21:48;;;;;;;12.20;3.50;;;27.90;75.00;;;;;;5052395;28;20199;-73
2024/02/18 04:24:15;;;;;;;14.40;3.37;;;27.90;74.80;;;;;;5050355;28;20180;-73
2024/02/18 04:26:43;;;;;;;13.23;3.70;;;27.80;74.90;;;;;;5052499;28;20241;-73
2024/02/18 04:29:10;;;;;;;15.10;3.80;;;27.60;75.40;;;;;;5052211;28;20177;-71
2024/02/18 04:31:40;;;;;;;13.43;3.33;;;27.50;76.40;;;;;;5052365;28;20176;-73
2024/02/18 04:34:08;;;;;;;13.03;3.37;;;27.30;76.90;;;;;;5052607;28;20234;-73
2024/02/18 04:36:35;;;;;;;14.27;3.33;;;27.30;76.80;;;;;;5048454;28;20251;-73
2024/02/18 04:39:02;;;;;;;8.10;3.13;;;27.30;77.30;;;;;;5056047;28;20210;-72
2024/02/18 04:41:33;;;;;;;9.70;3.10;;;27.20;77.20;;;;;;5055853;28;20195;-72
2024/02/18 04:44:00;;;;;;;15.47;3.83;;;27.30;77.40;;;;;;5055635;28;20851;-71
2024/02/18 04:46:27;;;;;;;13.13;3.33;;;27.20;77.60;;;;;;5056161;28;20564;-73
2024/02/18 04:48:56;;;;;;;10.17;3.43;;;27.20;78.00;;;;;;5056346;28;20187;-71
2024/02/18 04:51:26;;;;;;;11.67;3.17;;;27.10;78.10;;;;;;5055733;28;20190;-72
2024/02/18 04:53:53;;;;;;;8.57;2.57;;;26.90;78.40;;;;;;5052818;28;20180;-73
2024/02/18 04:56:21;;;;;;;13.23;3.47;;;26.80;78.80;;;;;;5055350;28;20184;-73
2024/02/18 04:58:48;;;;;;;13.00;3.37;;;26.80;79.10;;;;;;5055683;28;20250;-72
2024/02/18 05:01:16;;;;;;;14.57;3.30;;;26.80;79.50;;;;;;5055746;28;20195;-72
2024/02/18 05:03:43;;;;;;;12.63;4.47;;;26.70;79.90;;;;;;5055739;28;20180;-73
2024/02/18 05:06:11;;;;;;;11.87;3.57;;;26.60;80.80;;;;;;5055954;28;20305;-72
2024/02/18 05:08:38;;;;;;;12.60;3.80;;;26.60;81.30;;;;;;5056139;28;20521;-76
2024/02/18 05:11:06;;;;;;;11.07;4.07;;;26.60;81.40;;;;;;5055485;28;20258;-78
2024/02/18 05:13:33;;;;;;;14.10;4.60;;;26.60;81.30;;;;;;5055348;28;21669;-79
2024/02/18 05:16:00;;;;;;;12.50;4.70;;;26.50;81.60;;;;;;5055008;28;20691;-76
2024/02/18 05:18:28;;;;;;;13.13;5.43;;;26.50;81.90;;;;;;5045130;28;20398;-77
2024/02/18 05:20:55;;;;;;;13.73;4.57;;;26.50;81.10;;;;;;5052920;28;20196;-77
2024/02/18 05:23:23;;;;;;;15.43;4.93;;;26.50;80.70;;;;;;5054973;28;20190;-75
2024/02/18 05:25:50;;;;;;;14.93;4.67;;;26.40;79.80;;;;;;5050768;28;20207;-76
2024/02/18 05:28:18;;;;;;;12.00;4.30;;;26.40;79.40;;;;;;5047816;28;20241;-78
2024/02/18 05:30:45;;;;;;;13.20;4.67;;;26.30;79.30;;;;;;5055221;28;20668;-74
2024/02/18 05:33:13;;;;;;;10.93;4.67;;;26.40;79.40;;;;;;5053165;28;20639;-74
2024/02/18 05:35:40;;;;;;;12.90;4.37;;;26.40;79.50;;;;;;5054658;28;20241;-73
2024/02/18 05:38:07;;;;;;;12.07;4.73;;;26.60;79.30;;;;;;5055157;28;20614;-75
2024/02/18 05:40:34;;;;;;;10.50;4.73;;;26.50;79.40;;;;;;5055011;28;20207;-72
2024/02/18 05:43:02;;;;;;;17.37;5.17;;;26.60;79.60;;;;;;5042074;28;20168;-75
2024/02/18 05:45:31;;;;;;;17.03;5.67;;;26.70;80.30;;;;;;5049786;28;20184;-73
2024/02/18 05:47:58;;;;;;;11.97;5.10;;;26.80;81.30;;;;;;5048888;28;20211;-77
2024/02/18 05:50:26;;;;;;;14.37;5.90;;;26.60;80.90;;;;;;5040482;28;20234;-77
2024/02/18 05:52:53;;;;;;;14.77;6.43;;;26.70;81.70;;;;;;5048667;28;20184;-72
2024/02/18 05:55:20;;;;;;;15.73;6.43;;;26.60;82.00;;;;;;5048549;28;20185;-72
2024/02/18 05:57:48;;;;;;;16.23;6.23;;;26.40;81.90;;;;;;5054479;28;20654;-72
2024/02/18 06:00:17;;;;;;;14.33;6.43;;;26.30;82.00;;;;;;5054478;28;20208;-72
2024/02/18 06:02:44;;;;;;;13.40;6.43;;;26.30;82.40;;;;;;5054743;28;20183;-73
2024/02/18 06:05:15;;;;;;;13.70;6.17;;;26.20;82.20;;;;;;5054864;28;20184;-72
2024/02/18 06:07:43;;;;;;;15.00;6.83;;;26.20;82.70;;;;;;5054379;28;20184;-71
2024/02/18 06:10:10;;;;;;;13.73;6.47;;;26.20;82.70;;;;;;5054424;28;20199;-73
2024/02/18 06:12:38;;;;;;;18.93;7.20;;;26.00;82.90;;;;;;5054336;28;20176;-72
2024/02/18 06:15:06;;;;;;;18.40;7.00;;;26.00;82.80;;;;;;5054782;28;20178;-73
2024/02/18 06:17:33;;;;;;;13.47;6.57;;;26.00;83.60;;;;;;5054556;28;20180;-72
2024/02/18 06:20:00;;;;;;;15.10;7.13;;;26.00;83.80;;;;;;5054043;28;20216;-72
2024/02/18 06:22:28;;;;;;;15.50;7.73;;;25.90;83.70;;;;;;5054211;28;20183;-72
2024/02/18 06:24:55;;;;;;;17.07;8.43;;;26.00;84.50;;;;;;5053293;28;20183;-74
2024/02/18 06:27:22;;;;;;;10.37;8.40;;;25.90;84.80;;;;;;5049933;28;20179;-71
2024/02/18 06:29:50;;;;;;;17.30;8.40;;;25.80;85.20;;;;;;5053278;28;20207;-71
2024/02/18 06:32:20;;;;;;;16.90;8.37;;;25.80;85.00;;;;;;5053672;28;20208;-73
2024/02/18 06:34:48;;;;;;;13.53;7.50;;;25.80;85.00;;;;;;5054252;28;20184;-71
2024/02/18 06:37:15;;;;;;;12.20;7.83;;;25.70;85.10;;;;;;5054180;28;20188;-71
2024/02/18 06:39:42;;;;;;;20.13;8.53;;;25.80;85.10;;;;;;5053509;28;20697;-70
2024/02/18 06:42:10;;;;;;;17.97;8.00;;;25.80;85.00;;;;;;5045849;28;20267;-71
2024/02/18 06:44:37;;;;;;;15.87;7.40;;;25.80;85.00;;;;;;5047571;28;20239;-72
2024/02/18 06:47:04;;;;;;;13.67;6.60;;;25.80;84.40;;;;;;5041926;28;20184;-71
2024/02/18 06:49:32;;;;;;;11.03;6.87;;;25.80;83.90;;;;;;5045577;28;20176;-71
2024/02/18 06:51:59;;;;;;;10.83;6.00;;;25.80;84.00;;;;;;5047182;28;20547;-73
2024/02/18 06:54:26;;;;;;;12.53;5.80;;;25.70;82.90;;;;;;5048617;28;20222;-72
2024/02/18 06:56:54;;;;;;;11.70;6.27;;;25.60;83.20;;;;;;5046735;28;20180;-70
2024/02/18 06:59:21;;;;;;;13.00;5.80;;;25.70;83.10;;;;;;5045480;28;20242;-70
2024/02/18 07:01:49;;;;;;;11.80;6.53;;;25.70;82.90;;;;;;5045728;28;20651;-71
2024/02/18 07:04:16;;;;;;;11.60;6.10;;;25.70;82.80;;;;;;5044280;28;20646;-70
2024/02/18 07:06:43;;;;;;;14.00;6.57;;;25.80;82.90;;;;;;5048756;28;20519;-71
2024/02/18 07:09:11;;;;;;;21.87;15.03;;;25.70;82.60;;;;;;5039325;28;20184;-71
2024/02/18 07:11:38;;;;;;;22.53;19.77;;;25.70;82.40;;;;;;5036902;28;20774;-72
2024/02/18 07:14:05;;;;;;;17.90;12.70;;;25.70;82.70;;;;;;5047929;28;20210;-71
2024/02/18 07:16:32;;;;;;;9.73;7.10;;;25.80;82.70;;;;;;5050265;28;20188;-70
2024/02/18 07:19:00;;;;;;;13.47;7.00;;;25.80;82.50;;;;;;5050890;28;20227;-71
2024/02/18 07:21:27;;;;;;;10.93;5.07;;;25.80;82.40;;;;;;5051084;28;20179;-71
2024/02/18 07:23:55;;;;;;;15.07;5.47;;;25.80;82.10;;;;;;5049671;28;20184;-71
2024/02/18 07:26:22;;;;;;;11.47;6.17;;;25.80;81.90;;;;;;5045511;28;20272;-71
2024/02/18 07:28:49;;;;;;;15.03;6.20;;;25.80;81.70;;;;;;5052880;28;20266;-72
2024/02/18 07:31:17;;;;;;;14.13;5.60;;;25.80;81.50;;;;;;5052872;28;20711;-71
2024/02/18 07:33:44;;;;;;;12.00;5.43;;;25.70;81.60;;;;;;5052484;28;20188;-72
2024/02/18 07:36:13;;;;;;;10.77;5.50;;;25.80;81.40;;;;;;5052804;28;20208;-71
2024/02/18 07:38:40;;;;;;;14.07;5.67;;;25.70;81.30;;;;;;5052935;28;20215;-70
2024/02/18 07:41:08;;;;;;;10.70;5.70;;;25.70;81.30;;;;;;5053026;28;20187;-71
2024/02/18 07:43:35;;;;;;;12.20;5.63;;;25.80;81.10;;;;;;5052391;28;20176;-70
2024/02/18 07:46:02;;;;;;;10.97;4.83;;;25.80;80.90;;;;;;5049755;28;20176;-70
2024/02/18 07:48:29;;;;;;;11.00;5.30;;;25.70;80.60;;;;;;5052217;28;20587;-70
2024/02/18 07:50:57;;;;;;;11.87;5.67;;;25.70;80.70;;;;;;5052336;28;20646;-72
2024/02/18 07:53:24;;;;;;;13.90;6.03;;;25.70;80.80;;;;;;5052958;28;20543;-71
2024/02/18 07:55:51;;;;;;;11.37;6.10;;;25.70;80.90;;;;;;5050731;28;20529;-71
2024/02/18 07:58:18;;;;;;;9.03;5.70;;;25.70;81.30;;;;;;5047214;28;20550;-71
2024/02/18 08:00:46;;;;;;;9.90;5.53;;;25.70;81.10;;;;;;5052966;28;20188;-72
2024/02/18 08:03:16;;;;;;;13.17;6.27;;;25.60;81.40;;;;;;5052117;28;20222;-72
2024/02/18 08:05:43;;;;;;;12.30;5.67;;;25.70;81.50;;;;;;5051937;28;20203;-71
2024/02/18 08:08:10;;;;;;;11.47;5.40;;;25.60;81.50;;;;;;5052054;28;20176;-71
2024/02/18 08:10:38;;;;;;;11.47;5.77;;;25.60;81.60;;;;;;5052232;28;20199;-71
2024/02/18 08:13:06;;;;;;;12.23;6.83;;;25.60;81.90;;;;;;5051772;28;20268;-70
2024/02/18 08:15:33;;;;;;;9.93;6.07;;;25.60;81.90;;;;;;5052627;28;20176;-71
2024/02/18 08:18:01;;;;;;;11.27;6.37;;;25.60;81.90;;;;;;5052135;28;20198;-71
2024/02/18 08:20:28;;;;;;;13.43;6.37;;;25.70;81.90;;;;;;5052389;28;20226;-71
2024/02/18 08:22:55;;;;;;;11.87;5.70;;;25.80;81.60;;;;;;5051618;28;20176;-70
2024/02/18 08:25:23;;;;;;;14.80;6.13;;;25.80;81.50;;;;;;5051549;28;20179;-71
2024/02/18 08:27:50;;;;;;;12.93;6.20;;;25.80;81.30;;;;;;5044368;28;20281;-71
2024/02/18 08:30:17;;;;;;;11.07;5.97;;;25.80;81.50;;;;;;5052677;28;20172;-72
2024/02/18 08:32:45;;;;;;;12.30;6.80;;;25.60;81.90;;;;;;5053650;28;20282;-74
2024/02/18 08:35:12;;;;;;;12.47;5.80;;;25.70;82.00;;;;;;5052042;28;20292;-75
2024/02/18 08:37:40;;;;;;;10.53;6.07;;;25.60;81.60;;;;;;5052581;28;20183;-72
2024/02/18 08:40:10;;;;;;;10.97;5.50;;;25.60;81.70;;;;;;5052544;28;20212;-76
2024/02/18 08:42:37;;;;;;;14.53;6.20;;;25.50;81.80;;;;;;5051265;28;20259;-73
2024/02/18 08:45:05;;;;;;;7.60;5.27;;;25.50;81.70;;;;;;5052400;28;20674;-70
2024/02/18 08:47:32;;;;;;;11.33;5.57;;;25.60;81.90;;;;;;5051747;28;20176;-71
2024/02/18 08:49:59;;;;;;;13.90;6.13;;;25.50;81.80;;;;;;5052198;28;20207;-71
2024/02/18 08:52:27;;;;;;;10.43;5.63;;;25.40;82.10;;;;;;5051636;28;20176;-73
2024/02/18 08:54:54;;;;;;;11.87;5.70;;;25.50;82.10;;;;;;5052526;28;20180;-72
2024/02/18 08:57:22;;;;;;;12.93;6.43;;;25.50;82.10;;;;;;5047574;28;20212;-72
2024/02/18 08:59:49;;;;;;;9.30;6.13;;;25.40;82.20;;;;;;5051941;28;20277;-72
2024/02/18 09:02:16;;;;;;;11.70;5.90;;;25.40;82.50;;;;;;5051832;28;20230;-71
2024/02/18 09:04:43;;;;;;;12.03;6.63;;;25.40;82.50;;;;;;5052085;28;20294;-72
2024/02/18 09:07:11;;;;;;;12.43;6.43;;;25.40;82.80;;;;;;5052279;28;20262;-71
2024/02/18 09:09:38;;;;;;;10.13;6.23;;;25.40;83.00;;;;;;5051685;28;20226;-72
2024/02/18 09:12:06;;;;;;;11.77;7.07;;;25.40;83.00;;;;;;5051502;28;20274;-71
2024/02/18 09:14:33;;;;;;;11.20;6.70;;;25.40;82.80;;;;;;5051865;28;20172;-71
2024/02/18 09:17:00;;;;;;;13.53;6.87;;;25.30;82.90;;;;;;5052356;28;20654;-73
2024/02/18 09:19:28;;;;;;;10.63;7.50;;;25.30;83.10;;;;;;5051351;28;20212;-72
2024/02/18 09:21:55;;;;;;;15.10;8.20;;;25.30;83.20;;;;;;5053824;28;20259;-70
2024/02/18 09:24:22;;;;;;;13.17;7.27;;;25.30;83.20;;;;;;5055110;28;20272;-72
2024/02/18 09:26:50;;;;;;;11.43;7.47;;;25.30;83.30;;;;;;5043145;28;20214;-73
2024/02/18 09:29:17;;;;;;;10.77;7.07;;;25.20;83.30;;;;;;5048529;28;20641;-72
2024/02/18 09:31:47;;;;;;;12.63;6.80;;;25.30;83.20;;;;;;5051142;28;20184;-70
2024/02/18 09:34:15;;;;;;;11.60;7.50;;;25.30;83.20;;;;;;5047093;28;20555;-71
2024/02/18 09:36:42;;;;;;;15.80;7.97;;;25.30;83.30;;;;;;5047179;28;20845;-72
2024/02/18 09:39:11;;;;;;;13.13;7.80;;;25.30;83.20;;;;;;5051860;28;20204;-73
2024/02/18 09:41:43;;;;;;;17.93;8.50;;;25.30;83.40;;;;;;5044330;28;20195;-72
2024/02/18 09:44:12;;;;;;;16.30;9.53;;;25.30;83.50;;;;;;5046350;28;20233;-73
2024/02/18 09:46:40;;;;;;;15.70;8.73;;;25.30;83.80;;;;;;5044417;28;20638;-71
2024/02/18 09:49:11;;;;;;;16.00;8.30;;;25.30;83.80;;;;;;5047638;28;20172;-72
2024/02/18 09:51:39;;;;;;;17.37;9.60;;;25.30;83.60;;;;;;5046911;28;20761;-73
2024/02/18 09:54:08;;;;;;;15.87;9.13;;;25.30;83.50;;;;;;5045285;28;20256;-74
2024/02/18 09:56:36;;;;;;;16.43;9.47;;;25.30;83.50;;;;;;5043312;28;20218;-72
2024/02/18 09:59:03;;;;;;;15.60;8.77;;;25.30;83.30;;;;;;5047140;28;20967;-72
2024/02/18 10:01:32;;;;;;;15.23;9.33;;;25.30;83.40;;;;;;5052010;28;20194;-72
2024/02/18 10:03:59;;;;;;;14.80;9.77;;;25.30;83.50;;;;;;5041932;28;20220;-71
2024/02/18 10:06:27;;;;;;;13.13;8.97;;;25.30;83.30;;;;;;5042274;28;20184;-73
2024/02/18 10:08:57;;;;;;;14.87;8.23;;;25.30;83.50;;;;;;5045290;28;20196;-72
2024/02/18 10:11:25;;;;;;;11.23;7.47;;;25.30;83.70;;;;;;5041200;28;20275;-73
2024/02/18 10:13:58;;;;;;;13.00;8.33;;;25.30;83.30;;;;;;5049883;28;20184;-72
2024/02/18 10:16:26;;;;;;;14.13;7.50;;;25.30;83.50;;;;;;5041691;28;20190;-72
2024/02/18 10:18:56;;;;;;;10.87;8.07;;;25.20;83.70;;;;;;5045079;28;20208;-73
2024/02/18 10:21:25;;;;;;;9.07;7.80;;;25.20;83.60;;;;;;5052575;28;20198;-72
2024/02/18 10:23:53;;;;;;;14.33;7.67;;;25.20;83.40;;;;;;5052044;28;20535;-75
2024/02/18 10:26:22;;;;;;;11.33;7.47;;;25.20;83.30;;;;;;5049118;28;20247;-73
2024/02/18 10:28:49;;;;;;;15.23;8.50;;;25.30;83.30;;;;;;5041770;28;20188;-72
2024/02/18 10:31:16;;;;;;;14.40;8.40;;;25.20;83.20;;;;;;5039586;28;20214;-76
2024/02/18 10:33:44;;;;;;;12.97;8.40;;;25.20;83.20;;;;;;5046734;28;20184;-77
2024/02/18 10:36:12;;;;;;;11.67;7.27;;;25.20;83.00;;;;;;5045284;28;20212;-77
2024/02/18 10:38:47;;;;;;;12.40;7.73;;;25.20;82.90;;;;;;5054445;28;20235;-78
2024/02/18 10:41:27;;;;;;;11.07;6.67;;;25.10;83.00;;;;;;5053610;28;20183;-76
2024/02/18 10:43:59;;;;;;;10.27;7.00;;;25.20;82.90;;;;;;5053527;28;20180;-76
2024/02/18 10:46:28;;;;;;;12.63;6.50;;;25.20;82.70;;;;;;5053665;28;20242;-76
2024/02/18 10:49:22;;;;;;;7.93;5.87;;;25.20;82.70;;;;;;5053981;28;20238;-72
2024/02/18 10:52:27;;;;;;;12.67;6.43;;;25.20;82.50;;;;;;5053386;28;20176;-72
2024/02/18 10:55:06;;;;;;;14.10;7.43;;;25.20;82.40;;;;;;5048947;28;20223;-72
2024/02/18 10:57:44;;;;;;;10.83;7.10;;;25.20;82.10;;;;;;5044818;28;20182;-76
2024/02/18 11:00:13;;;;;;;9.33;6.80;;;25.30;82.20;;;;;;5053304;28;20607;-76
2024/02/18 11:02:46;;;;;;;11.90;5.97;;;25.20;82.30;;;;;;5053980;28;20183;-73
2024/02/18 11:05:14;;;;;;;11.77;6.37;;;25.20;82.50;;;;;;5053744;28;20183;-74
2024/02/18 11:07:42;;;;;;;8.47;6.30;;;25.20;82.90;;;;;;5053044;28;20176;-74
2024/02/18 11:10:10;;;;;;;10.90;7.37;;;25.20;82.50;;;;;;5053135;28;20192;-75
2024/02/18 11:12:38;;;;;;;11.57;7.50;;;25.20;82.60;;;;;;5051630;28;20194;-77
2024/02/18 11:15:11;;;;;;;14.67;7.40;;;25.20;82.80;;;;;;5042490;28;20294;-74
2024/02/18 11:17:40;;;;;;;12.80;7.30;;;25.10;83.00;;;;;;5053708;28;21752;-77
2024/02/18 11:20:11;;;;;;;14.53;8.00;;;25.10;83.30;;;;;;5053193;28;20211;-77
2024/02/18 11:22:39;;;;;;;16.30;8.27;;;25.00;83.40;;;;;;5053074;28;20176;-76
2024/02/18 11:25:08;;;;;;;14.70;7.53;;;25.00;83.70;;;;;;5053475;28;20669;-70
2024/02/18 11:27:36;;;;;;;10.70;7.67;;;25.00;83.90;;;;;;5051906;28;20168;-72
2024/02/18 11:30:04;;;;;;;11.37;8.67;;;24.90;84.10;;;;;;5049216;28;20176;-72
2024/02/18 11:32:32;;;;;;;7.97;7.20;;;25.00;84.20;;;;;;5052930;28;20233;-71
2024/02/18 11:35:17;;;;;;;8.77;5.70;;;24.80;82.40;;;;;;5052937;28;20278;-70
2024/02/18 11:37:44;;;;;;;6.37;4.33;;;24.70;79.10;;;;;;5040821;28;20204;-71
2024/02/18 11:40:18;;;;;;;5.90;3.63;;;24.70;77.50;;;;;;5052764;28;20262;-71
2024/02/18 11:42:49;;;;;;;5.70;3.83;;;24.70;76.80;;;;;;5049891;28;20175;-72
2024/02/18 11:45:20;;;;;;;6.87;3.77;;;24.80;76.30;;;;;;5053061;28;20175;-70
2024/02/18 11:47:49;;;;;;;6.50;4.03;;;24.80;76.70;;;;;;5047713;28;20859;-71
2024/02/18 11:50:18;;;;;;;5.37;3.53;;;24.80;76.20;;;;;;5051678;28;20305;-70
2024/02/18 11:52:47;;;;;;;3.87;2.90;;;24.80;75.70;;;;;;5051832;28;20187;-72
2024/02/18 11:55:19;;;;;;;6.00;3.13;;;24.70;74.40;;;;;;5052243;28;20183;-69
2024/02/18 11:57:48;;;;;;;6.37;2.80;;;24.70;73.30;;;;;;5046067;28;20184;-70
2024/02/18 12:00:17;;;;;;;3.63;2.80;;;24.60;73.50;;;;;;5052571;28;20613;-70
2024/02/18 12:02:54;;;;;;;3.53;2.60;;;24.60;73.60;;;;;;5052939;28;20184;-70
2024/02/18 12:05:24;;;;;;;4.50;2.60;;;24.70;73.50;;;;;;5052666;28;20274;-70
2024/02/18 12:07:56;;;;;;;3.67;2.70;;;24.80;73.20;;;;;;5051764;28;20176;-70
2024/02/18 12:10:24;;;;;;;4.13;2.33;;;24.80;73.10;;;;;;5052184;28;20184;-70
2024/02/18 12:12:51;;;;;;;4.20;3.10;;;24.80;72.80;;;;;;5052323;28;20307;-74
2024/02/18 12:15:22;;;;;;;5.37;2.73;;;24.80;72.90;;;;;;5052546;28;20180;-76
2024/02/18 12:17:52;;;;;;;4.03;3.10;;;24.70;72.80;;;;;;5052254;28;20187;-77
2024/02/18 12:20:22;;;;;;;5.10;2.90;;;24.60;73.40;;;;;;5052683;28;20301;-76
2024/02/18 12:22:50;;;;;;;5.37;2.83;;;24.50;73.30;;;;;;5051870;28;20314;-74
2024/02/18 12:25:17;;;;;;;4.47;2.67;;;24.40;73.10;;;;;;5048579;28;20219;-78
2024/02/18 12:27:45;;;;;;;4.17;2.77;;;24.40;72.90;;;;;;5051067;28;20729;-72
2024/02/18 12:30:13;;;;;;;5.80;2.60;;;24.30;72.70;;;;;;5051418;28;20669;-71
2024/02/18 12:32:41;;;;;;;3.07;2.50;;;24.30;72.90;;;;;;5052661;28;20180;-71
2024/02/18 12:35:10;;;;;;;4.90;2.13;;;24.30;72.90;;;;;;5052149;28;20371;-71
2024/02/18 12:37:37;;;;;;;7.77;2.60;;;24.30;72.70;;;;;;5039771;28;20179;-70
2024/02/18 12:40:05;;;;;;;6.27;2.33;;;24.30;72.70;;;;;;5051751;28;20219;-70
2024/02/18 12:42:33;;;;;;;3.93;2.10;;;24.30;72.90;;;;;;5051827;28;20176;-71